EDT,Max TemperatureF,Mean TemperatureF,Min TemperatureF,Max Dew PointF,MeanDew PointF,Min DewpointF,Max Humidity, Mean Humidity, Min Humidity, Max Sea Level PressureIn, Mean Sea Level PressureIn, Min Sea Level PressureIn, Max VisibilityMiles, Mean VisibilityMiles, Min VisibilityMiles, Max Wind SpeedMPH, Mean Wind SpeedMPH, Max Gust SpeedMPH,PrecipitationIn, CloudCover, Events, WindDirDegrees
2014-3-1,59,48,36,43,36,30,93,70,53,30.32,30.26,30.22,10,10,9,14,9,,0.00,4,,11
2014-3-2,64,52,39,53,44,39,97,69,43,30.22,30.13,29.97,10,10,8,15,4,,0.00,2,,215
2014-3-3,63,48,30,53,40,25,89,81,70,30.18,30.00,29.91,10,9,4,24,14,34,0.00,5,Rain,342
2014-3-4,35,32,28,31,28,23,92,85,75,30.27,30.21,30.17,10,7,2,20,15,31,0.00,8,Rain,360
2014-3-5,41,37,33,39,35,31,93,90,82,30.23,30.16,30.11,9,5,2,16,11,22,0.09,8,Rain,9
2014-3-6,48,42,37,47,38,31,93,85,76,30.26,30.17,29.91,10,5,2,25,18,36,0.52,7,Rain,23
2014-3-7,53,48,42,51,46,39,96,91,87,29.88,29.72,29.60,10,5,2,30,21,44,1.06,8,Rain,13
2014-3-8,61,49,37,49,40,33,89,75,41,30.07,30.00,29.86,10,10,8,21,14,25,0.00,1,,292
2014-3-9,66,55,41,47,44,39,93,74,40,30.07,30.03,29.99,10,8,4,12,8,18,0.00,0,,303
2014-3-10,71,54,39,51,44,38,97,80,42,30.04,29.93,29.83,10,5,0,10,3,,0.00,0,Fog,258
2014-3-11,66,57,50,54,50,46,87,77,56,29.84,29.78,29.72,10,9,7,15,10,,0.00,0,,221
2014-3-12,66,60,55,58,54,49,90,83,74,29.74,29.55,29.35,10,8,5,25,13,36,0.08,2,Rain,229
2014-3-13,52,44,33,38,20,10,57,40,25,30.25,29.92,29.53,10,10,10,30,23,40,0.00,0,,320
2014-3-14,55,41,27,46,26,12,80,53,26,30.38,30.29,30.17,10,10,10,15,4,,0.00,0,,202
2014-3-15,66,59,52,50,47,43,83,68,42,30.15,30.05,29.97,10,10,9,16,11,21,0.00,1,,235
2014-3-16,57,52,48,52,48,42,97,85,62,30.05,29.96,29.80,10,8,3,12,6,20,0.49,5,Rain,50
2014-3-17,48,44,39,47,41,38,93,91,89,29.89,29.81,29.73,10,8,2,17,13,26,0.22,8,Rain,14
2014-3-18,48,44,41,46,43,40,96,92,89,30.06,29.89,29.79,10,5,2,24,16,36,0.08,8,Rain,359
2014-3-19,64,54,45,56,50,43,100,90,75,30.10,30.04,29.97,10,5,1,16,11,20,0.00,8,Rain,330
2014-3-20,64,56,48,52,48,46,100,85,54,30.02,29.98,29.94,10,8,1,16,10,,0.00,2,,255
2014-3-21,64,54,45,49,38,25,96,58,24,30.17,30.11,30.01,10,10,5,12,6,,0.00,0,,109
2014-3-22,69,58,50,59,53,45,93,79,61,30.11,30.04,29.97,10,10,8,16,7,24,0.07,0,Rain,208
2014-3-23,62,52,43,60,49,34,100,81,50,30.10,29.96,29.90,10,7,0,22,8,33,0.00,5,Fog-Rain,329
2014-3-24,48,42,36,37,27,17,89,59,29,30.26,30.19,30.10,10,10,7,18,10,23,0.00,0,,35
2014-3-25,54,45,37,49,41,30,93,83,61,30.14,29.80,29.62,10,8,2,26,10,37,0.38,7,Rain,2
2014-3-26,48,41,32,34,24,17,82,56,30,30.34,30.12,29.86,10,10,10,26,19,34,0.00,1,,317
2014-3-27,55,41,28,47,29,20,85,60,29,30.51,30.43,30.35,10,10,10,9,3,,0.00,0,,126
2014-3-28,70,62,54,58,54,48,83,74,63,30.34,30.25,30.17,10,10,9,18,10,24,0.00,4,,176
2014-3-29,66,64,63,64,61,57,97,89,75,30.15,29.86,29.65,10,6,2,21,14,32,0.19,7,Rain,170
2014-3-30,63,56,48,62,47,36,97,76,55,29.88,29.68,29.57,10,9,6,25,17,32,0.00,6,,269
2014-3-31,68,56,45,40,34,28,77,48,25,30.10,29.99,29.89,10,10,10,21,13,32,0.00,1,,317